createdAt,value
2023-11-30T00:00:41.023Z,95937.38
2023-11-30T00:05:43.222Z,95919.28
2023-11-30T00:10:45.010Z,95929.75
2023-11-30T00:15:48.053Z,95941.94
2023-11-30T00:20:50.310Z,95936.69
2023-11-30T00:25:52.772Z,95937.50
2023-11-30T00:30:55.003Z,95948.78
2023-11-30T00:35:57.069Z,95947.31
2023-11-30T00:40:58.920Z,95943.94
2023-11-30T00:46:07.146Z,95949.72
2023-11-30T00:51:13.057Z,95937.47
2023-11-30T00:56:14.755Z,95934.88
2023-11-30T01:01:16.849Z,95941.31
2023-11-30T01:06:19.001Z,95931.84
2023-11-30T01:11:21.341Z,95938.28
2023-11-30T01:16:23.186Z,95938.53
2023-11-30T01:21:25.063Z,95944.59
2023-11-30T01:26:26.776Z,95946.63
2023-11-30T01:31:28.879Z,95935.47
2023-11-30T01:36:30.718Z,95933.63
2023-11-30T01:41:32.471Z,95927.69
2023-11-30T01:46:37.568Z,95927.38
2023-11-30T01:51:39.590Z,95922.47
2023-11-30T01:56:43.216Z,95914.78
2023-11-30T02:01:45.232Z,95907.75
2023-11-30T02:06:47.598Z,95904.59
2023-11-30T02:11:49.495Z,95891.94
2023-11-30T02:16:51.345Z,95882.84
2023-11-30T02:21:53.331Z,95876.63
2023-11-30T02:26:55.224Z,95853.03
2023-11-30T02:31:57.158Z,95849.06
2023-11-30T02:36:59.967Z,95843.19
2023-11-30T02:42:01.634Z,95841.38
2023-11-30T02:47:03.637Z,95849.81
2023-11-30T02:52:05.649Z,95852.00
2023-11-30T02:57:07.886Z,95848.75
2023-11-30T03:02:10.039Z,95841.72
2023-11-30T03:07:12.113Z,95839.56
2023-11-30T03:12:18.286Z,95833.06
2023-11-30T03:17:20.818Z,95828.16
2023-11-30T03:22:22.586Z,95827.50
2023-11-30T03:27:24.647Z,95829.13
2023-11-30T03:32:26.684Z,95835.50
2023-11-30T03:37:28.894Z,95824.53
2023-11-30T03:42:30.990Z,95822.88
2023-11-30T03:47:32.789Z,95819.16
2023-11-30T03:52:35.387Z,95818.00
2023-11-30T03:57:37.444Z,95832.75
2023-11-30T04:02:39.754Z,95833.59
2023-11-30T04:07:41.544Z,95842.16
2023-11-30T04:12:43.960Z,95832.19
2023-11-30T04:17:45.584Z,95824.09
2023-11-30T04:22:47.418Z,95827.63
2023-11-30T04:27:49.211Z,95833.00
2023-11-30T04:32:50.969Z,95829.06
2023-11-30T04:37:53.106Z,95808.00
2023-11-30T04:42:56.867Z,95799.44
2023-11-30T04:47:59.092Z,95800.81
2023-11-30T04:53:01.509Z,95798.72
2023-11-30T04:58:03.218Z,95789.09
2023-11-30T05:03:05.329Z,95791.53
2023-11-30T05:08:07.194Z,95789.66
2023-11-30T05:13:09.290Z,95784.03
2023-11-30T05:18:11.216Z,95784.03
2023-11-30T05:23:13.092Z,95770.56
2023-11-30T05:28:14.871Z,95764.03
2023-11-30T05:33:17.665Z,95754.97
2023-11-30T05:38:20.458Z,95756.59
2023-11-30T05:43:22.328Z,95760.13
2023-11-30T05:48:24.165Z,95757.75
2023-11-30T05:53:26.706Z,95764.53
2023-11-30T05:58:29.126Z,95758.41
2023-11-30T06:03:31.119Z,95757.59
2023-11-30T06:08:32.932Z,95751.72
2023-11-30T06:13:35.584Z,95736.03
2023-11-30T06:18:38.232Z,95739.47
2023-11-30T06:23:40.144Z,95737.34
2023-11-30T06:28:42.249Z,95742.25
2023-11-30T06:33:44.400Z,95747.16
2023-11-30T06:38:46.604Z,95752.91
2023-11-30T06:43:48.385Z,95755.34
2023-11-30T06:48:53.317Z,95742.91
2023-11-30T06:53:55.143Z,95740.66
2023-11-30T06:58:57.403Z,95741.31
2023-11-30T07:03:59.397Z,95744.38
2023-11-30T07:09:01.725Z,95745.22
2023-11-30T07:14:03.664Z,95735.50
2023-11-30T07:19:05.384Z,95712.84
2023-11-30T07:24:10.024Z,95708.84
2023-11-30T07:29:13.526Z,95710.16
2023-11-30T07:34:15.338Z,95697.16
2023-11-30T07:39:17.840Z,95689.03
2023-11-30T07:44:19.831Z,95691.59
2023-11-30T07:49:21.699Z,95680.53
2023-11-30T07:54:23.766Z,95689.94
2023-11-30T07:59:25.636Z,95677.66
2023-11-30T08:04:27.477Z,95689.56
2023-11-30T08:09:29.970Z,95684.16
2023-11-30T08:14:31.973Z,95695.72
2023-11-30T08:19:37.031Z,95690.06
2023-11-30T08:24:39.918Z,95693.16
2023-11-30T08:29:42.783Z,95693.22
2023-11-30T08:34:44.550Z,95681.38
2023-11-30T08:39:47.276Z,95686.31
2023-11-30T08:44:49.309Z,95685.28
2023-11-30T08:49:51.181Z,95682.06
2023-11-30T08:54:54.270Z,95675.81
2023-11-30T08:59:59.015Z,95671.66
2023-11-30T09:05:00.922Z,95679.53
2023-11-30T09:10:03.385Z,95690.19
2023-11-30T09:15:09.955Z,95683.00
2023-11-30T09:20:12.785Z,95688.09
2023-11-30T09:25:14.777Z,95674.41
2023-11-30T09:30:16.924Z,95670.34
2023-11-30T09:35:19.368Z,95677.81
2023-11-30T09:40:21.471Z,95664.13
2023-11-30T09:45:25.290Z,95670.66
2023-11-30T09:50:27.104Z,95683.16
2023-11-30T09:55:29.695Z,95658.00
2023-11-30T10:00:31.670Z,95633.13
2023-11-30T10:05:33.881Z,95621.78
2023-11-30T10:10:35.993Z,95629.88
2023-11-30T10:15:37.778Z,95617.41
2023-11-30T10:20:39.904Z,95612.00
2023-11-30T10:25:42.362Z,95595.81
2023-11-30T10:30:45.039Z,95595.03
2023-11-30T10:35:50.474Z,95589.34
2023-11-30T10:41:00.778Z,95582.03
2023-11-30T10:46:08.273Z,95568.22
2023-11-30T10:51:14.521Z,95557.41
2023-11-30T10:56:18.726Z,95558.50
2023-11-30T11:01:20.545Z,95571.22
2023-11-30T11:06:26.646Z,95561.50
2023-11-30T11:11:30.653Z,95557.13
2023-11-30T11:16:42.548Z,95559.56
2023-11-30T11:21:45.130Z,95550.94
2023-11-30T11:26:49.102Z,95532.78
2023-11-30T11:31:51.116Z,95524.41
2023-11-30T11:36:52.855Z,95521.13
2023-11-30T11:41:55.115Z,95530.06
2023-11-30T11:46:56.906Z,95519.75
2023-11-30T11:51:59.126Z,95516.72
2023-11-30T11:57:00.890Z,95509.16
2023-11-30T12:02:03.058Z,95503.16
2023-11-30T12:07:16.472Z,95505.78
2023-11-30T12:12:18.304Z,95503.34
2023-11-30T12:17:20.255Z,95501.97
2023-11-30T12:22:22.559Z,95492.50
2023-11-30T12:27:24.479Z,95479.78
2023-11-30T12:32:26.518Z,95502.50
2023-11-30T12:37:28.282Z,95510.34
2023-11-30T12:42:30.404Z,95501.41
2023-11-30T12:47:33.045Z,95499.81
2023-11-30T12:52:34.921Z,95497.34
2023-11-30T12:57:39.767Z,95490.91
2023-11-30T13:02:44.763Z,95486.28
2023-11-30T13:07:47.637Z,95487.34
2023-11-30T13:12:49.410Z,95485.41
2023-11-30T13:17:51.213Z,95485.41
2023-11-30T13:22:53.011Z,95511.41
2023-11-30T13:27:54.844Z,95495.44
2023-11-30T13:32:57.431Z,95493.28
2023-11-30T13:37:59.368Z,95507.34
2023-11-30T13:43:01.970Z,95509.50
2023-11-30T13:48:03.944Z,95497.59
2023-11-30T13:53:06.105Z,95517.06
2023-11-30T13:58:10.882Z,95510.00
2023-11-30T14:03:14.145Z,95502.44
2023-11-30T14:08:17.019Z,95498.63
2023-11-30T14:13:18.755Z,95517.00
2023-11-30T14:18:20.743Z,95493.47
2023-11-30T14:23:22.582Z,95485.63
2023-11-30T14:28:26.035Z,95484.81
2023-11-30T14:33:27.900Z,95484.78
2023-11-30T14:38:29.711Z,95490.19
2023-11-30T14:43:32.159Z,95485.28
2023-11-30T14:48:34.036Z,95492.03
2023-11-30T14:53:35.947Z,95495.81
2023-11-30T14:58:37.785Z,95504.47
2023-11-30T15:03:39.765Z,95495.56
2023-11-30T15:08:41.758Z,95505.56
2023-11-30T15:13:43.605Z,95502.09
2023-11-30T15:18:45.376Z,95502.88
2023-11-30T15:23:47.118Z,95495.63
2023-11-30T15:28:48.955Z,95504.53
2023-11-30T15:33:51.232Z,95484.53
2023-11-30T15:38:53.177Z,95497.19
2023-11-30T15:43:55.040Z,95495.50
2023-11-30T15:48:56.906Z,95487.09
2023-11-30T15:53:58.798Z,95490.03
2023-11-30T15:59:01.037Z,95506.78
2023-11-30T16:04:02.923Z,95506.00
2023-11-30T16:09:05.528Z,95509.72
2023-11-30T16:14:07.599Z,95539.84
2023-11-30T16:19:09.982Z,95531.69
2023-11-30T16:24:12.081Z,95517.03
2023-11-30T16:29:13.898Z,95522.75
2023-11-30T16:34:17.103Z,95530.13
2023-11-30T16:39:19.154Z,95553.41
2023-11-30T16:44:21.381Z,95548.84
2023-11-30T16:49:23.269Z,95554.00
2023-11-30T16:54:25.192Z,95556.69
2023-11-30T16:59:27.489Z,95524.28
2023-11-30T17:04:29.249Z,95541.09
2023-11-30T17:09:31.002Z,95543.38
2023-11-30T17:14:32.874Z,95530.47
2023-11-30T17:19:34.605Z,95516.66
2023-11-30T17:24:36.388Z,95525.00
2023-11-30T17:29:39.062Z,95507.72
2023-11-30T17:34:41.181Z,95520.06
2023-11-30T17:39:43.062Z,95524.97
2023-11-30T17:44:44.801Z,95494.69
2023-11-30T17:49:46.923Z,95521.41
2023-11-30T17:54:50.304Z,95521.31
2023-11-30T17:59:52.233Z,95522.16
2023-11-30T18:04:53.996Z,95523.19
2023-11-30T18:09:56.112Z,95528.22
2023-11-30T18:14:58.088Z,95491.75
2023-11-30T18:20:00.486Z,95504.19
2023-11-30T18:25:02.633Z,95505.81
2023-11-30T18:30:05.009Z,95506.63
2023-11-30T18:35:07.570Z,95486.94
2023-11-30T18:40:15.019Z,95481.00
2023-11-30T18:45:17.097Z,95486.94
2023-11-30T18:50:19.339Z,95490.72
2023-11-30T18:55:21.123Z,95502.34
2023-11-30T19:00:23.355Z,95507.44
2023-11-30T19:05:25.765Z,95524.09
2023-11-30T19:10:27.748Z,95505.34
2023-11-30T19:15:31.448Z,95515.59
2023-11-30T19:20:33.628Z,95531.53
2023-11-30T19:25:35.488Z,95508.53
2023-11-30T19:30:38.526Z,95518.06
2023-11-30T19:35:40.291Z,95534.31
2023-11-30T19:40:42.164Z,95522.94
2023-11-30T19:45:44.280Z,95517.13
2023-11-30T19:50:46.315Z,95512.53
2023-11-30T19:55:48.221Z,95516.94
2023-11-30T20:00:52.672Z,95503.72
2023-11-30T20:05:54.476Z,95501.59
2023-11-30T20:10:56.305Z,95506.47
2023-11-30T20:15:58.651Z,95501.06
2023-11-30T20:21:00.593Z,95497.00
2023-11-30T20:26:02.714Z,95499.44
2023-11-30T20:31:04.908Z,95501.06
2023-11-30T20:36:06.907Z,95509.47
2023-11-30T20:41:10.252Z,95522.47
2023-11-30T20:46:13.906Z,95519.44
2023-11-30T20:51:19.695Z,95518.34
2023-11-30T20:56:21.697Z,95521.06
2023-11-30T21:01:23.827Z,95504.84
2023-11-30T21:06:27.538Z,95512.38
2023-11-30T21:11:29.996Z,95521.91
2023-11-30T21:16:31.926Z,95525.41
2023-11-30T21:21:34.307Z,95515.66
2023-11-30T21:26:36.025Z,95526.22
2023-11-30T21:31:41.351Z,95518.38
2023-11-30T21:36:43.788Z,95524.28
2023-11-30T21:41:45.711Z,95510.53
2023-11-30T21:46:47.465Z,95508.06
2023-11-30T21:51:49.387Z,95505.38
2023-11-30T21:56:51.692Z,95503.72
2023-11-30T22:01:53.698Z,95512.38
2023-11-30T22:06:55.528Z,95508.09
2023-11-30T22:11:58.554Z,95523.19
2023-11-30T22:17:00.300Z,95512.66
2023-11-30T22:22:02.330Z,95512.91
2023-11-30T22:27:05.626Z,95517.47
2023-11-30T22:32:08.466Z,95535.09
2023-11-30T22:37:10.697Z,95543.75
2023-11-30T22:42:12.496Z,95538.34
2023-11-30T22:47:15.411Z,95536.44
2023-11-30T22:52:17.543Z,95534.28
2023-11-30T22:57:19.911Z,95526.47
2023-11-30T23:02:23.586Z,95523.19
2023-11-30T23:07:25.468Z,95529.94
2023-11-30T23:12:27.803Z,95530.31
2023-11-30T23:17:30.199Z,95522.19
2023-11-30T23:22:32.059Z,95530.56
2023-11-30T23:27:34.472Z,95517.63
2023-11-30T23:32:36.371Z,95513.06
2023-11-30T23:37:38.221Z,95495.75
2023-11-30T23:42:40.543Z,95494.69
2023-11-30T23:47:43.225Z,95504.16
2023-11-30T23:52:45.406Z,95502.78
2023-11-30T23:57:47.740Z,95506.31
